Time;durP1;ratioP1;P1;durP2;ratioP2;P2;SDS_P1;SDS_P2;PMS_P1;PMS_P2;Temp;Humidity;BMP_temperature;BMP_pressure;BME280_temperature;BME280_humidity;BME280_pressure;Samples;Min_cycle;Max_cycle;Signal;HPM_P1;HPM_P2
2024/02/12 00:02:18;;;;;;;10.27;7.93;;;;;;;6.67;100.00;99722.69;5089812;28;20028;-40
2024/02/12 00:04:48;;;;;;;8.77;7.88;;;;;;;6.67;100.00;99716.50;5089737;28;20439;-40
2024/02/12 00:07:16;;;;;;;9.90;7.50;;;;;;;6.74;100.00;99722.59;5079078;28;20031;-40
2024/02/12 00:09:43;;;;;;;12.82;9.13;;;;;;;6.69;100.00;99715.22;5076489;28;20092;-41
2024/02/12 00:12:09;;;;;;;13.15;9.50;;;;;;;6.72;100.00;99713.94;5076990;28;20021;-41
2024/02/12 00:14:36;;;;;;;12.73;9.52;;;;;;;6.83;100.00;99731.09;5076135;28;20050;-41
2024/02/12 00:17:04;;;;;;;11.93;9.98;;;;;;;6.86;100.00;99733.31;5076128;28;20019;-40
2024/02/12 00:19:34;;;;;;;13.52;9.43;;;;;;;6.89;100.00;99739.06;5076533;28;20020;-40
2024/02/12 00:22:01;;;;;;;13.32;10.73;;;;;;;6.91;100.00;99749.56;5075925;28;20465;-40
2024/02/12 00:24:28;;;;;;;18.20;11.77;;;;;;;6.80;100.00;99723.53;5075870;28;20020;-40
2024/02/12 00:26:57;;;;;;;14.32;11.52;;;;;;;6.93;100.00;99745.59;5076465;28;20368;-40
2024/02/12 00:29:22;;;;;;;14.27;11.35;;;;;;;6.93;100.00;99750.97;5076562;28;20038;-40
2024/02/12 00:31:48;;;;;;;15.93;12.40;;;;;;;6.95;100.00;99767.69;5075844;28;20090;-40
2024/02/12 00:34:13;;;;;;;17.97;13.10;;;;;;;6.99;100.00;99772.59;5076136;28;20055;-40
2024/02/12 00:36:41;;;;;;;17.07;13.37;;;;;;;6.99;100.00;99777.97;5076249;28;20134;-40
2024/02/12 00:39:09;;;;;;;16.75;13.25;;;;;;;7.00;100.00;99771.53;5075320;28;20028;-40
2024/02/12 00:41:34;;;;;;;19.52;14.32;;;;;;;6.97;100.00;99779.00;5075614;28;20024;-40
2024/02/12 00:44:03;;;;;;;18.42;13.15;;;;;;;6.93;100.00;99772.47;5075849;28;20028;-40
2024/02/12 00:46:29;;;;;;;19.08;14.27;;;;;;;7.01;100.00;99792.00;5075768;28;20025;-40
2024/02/12 00:48:56;;;;;;;21.67;16.07;;;;;;;6.87;100.00;99770.69;5075543;28;20096;-40
2024/02/12 00:51:22;;;;;;;19.80;15.50;;;;;;;6.97;100.00;99788.94;5075132;28;20024;-40
2024/02/12 00:53:48;;;;;;;20.10;15.32;;;;;;;6.99;100.00;99791.41;5075382;28;20078;-40
2024/02/12 00:56:16;;;;;;;21.33;15.82;;;;;;;6.96;100.00;99796.19;5075908;28;20040;-40
2024/02/12 00:58:42;;;;;;;23.63;17.55;;;;;;;6.87;100.00;99781.44;5075557;28;20349;-40
2024/02/12 01:01:11;;;;;;;22.33;17.17;;;;;;;6.96;100.00;99806.13;5076021;28;20032;-40
2024/02/12 01:03:37;;;;;;;23.48;17.77;;;;;;;6.85;100.00;99791.63;5075446;28;20095;-40
2024/02/12 01:06:02;;;;;;;25.35;18.05;;;;;;;6.95;100.00;99804.50;5075355;28;20074;-40
2024/02/12 01:08:28;;;;;;;21.30;15.70;;;;;;;6.97;100.00;99813.94;5075680;28;20210;-40
2024/02/12 01:10:53;;;;;;;22.43;17.30;;;;;;;6.88;100.00;99801.94;5075326;28;20020;-40
2024/02/12 01:13:19;;;;;;;28.98;18.38;;;;;;;6.92;100.00;99813.81;5075865;28;20036;-40
2024/02/12 01:15:49;;;;;;;23.92;16.70;;;;;;;6.93;100.00;99815.50;5074837;28;20020;-40
2024/02/12 01:18:15;;;;;;;25.25;17.77;;;;;;;6.94;100.00;99819.00;5073930;28;20100;-40
2024/02/12 01:20:41;;;;;;;22.63;17.13;;;;;;;6.94;100.00;99821.69;5074842;28;20024;-40
2024/02/12 01:23:06;;;;;;;23.75;17.02;;;;;;;6.91;100.00;99820.25;5074895;28;20078;-40
2024/02/12 01:25:32;;;;;;;26.48;17.95;;;;;;;6.89;100.00;99822.38;5074758;28;20028;-40
2024/02/12 01:28:00;;;;;;;24.95;17.02;;;;;;;6.93;100.00;99828.09;5075532;28;20052;-40
2024/02/12 01:30:26;;;;;;;23.40;17.80;;;;;;;6.92;100.00;99838.00;5074574;28;20024;-40
2024/02/12 01:32:53;;;;;;;;;;;;;;;7.02;100.00;99831.25;5074770;28;20031;-40
2024/02/12 01:35:20;;;;;;;23.02;16.45;;;;;;;6.95;100.00;99834.06;5074222;28;20379;-40
2024/02/12 01:37:46;;;;;;;20.83;16.60;;;;;;;6.96;100.00;99846.44;5074222;28;20492;-41
2024/02/12 01:40:11;;;;;;;23.98;16.92;;;;;;;6.96;100.00;99841.88;5074265;28;20024;-41
2024/02/12 01:42:37;;;;;;;24.40;16.98;;;;;;;6.92;100.00;99842.56;5074767;28;20060;-40
2024/02/12 01:45:13;;;;;;;20.23;15.93;;;;;;;6.89;100.00;99840.38;5074407;28;20076;-41
2024/02/12 01:47:41;;;;;;;21.10;15.85;;;;;;;6.88;100.00;99838.69;5075208;28;20311;-40
2024/02/12 01:50:08;;;;;;;21.25;16.35;;;;;;;6.83;100.00;99838.56;5074263;28;20043;-41
2024/02/12 01:52:33;;;;;;;21.10;15.77;;;;;;;6.79;100.00;99846.31;5073885;28;20029;-40
2024/02/12 01:55:03;;;;;;;20.67;16.08;;;;;;;6.74;100.00;99842.69;5074161;28;20048;-40
2024/02/12 01:57:33;;;;;;;20.65;16.33;;;;;;;6.70;100.00;99848.50;5073907;28;20043;-41
2024/02/12 02:00:00;;;;;;;23.83;16.45;;;;;;;6.65;100.00;99850.25;5073795;28;20043;-41
2024/02/12 02:02:25;;;;;;;;;;;;;;;6.74;100.00;99854.25;5075299;28;20032;-40
2024/02/12 02:04:53;;;;;;;24.25;14.98;;;;;;;6.62;100.00;99861.44;5073990;28;19908;-41
2024/02/12 02:07:19;;;;;;;23.33;16.20;;;;;;;6.57;100.00;99854.06;5073760;28;20016;-40
2024/02/12 02:09:50;;;;;;;21.20;15.90;;;;;;;6.57;100.00;99856.75;5074236;28;20025;-40
2024/02/12 02:12:16;;;;;;;21.17;15.63;;;;;;;6.47;100.00;99848.41;5074420;28;20048;-40
2024/02/12 02:14:43;;;;;;;20.85;16.48;;;;;;;6.49;100.00;99851.72;5073433;28;20536;-41
2024/02/12 02:17:09;;;;;;;19.23;15.57;;;;;;;6.46;100.00;99865.59;5074114;28;20341;-41
2024/02/12 02:19:35;;;;;;;24.58;16.77;;;;;;;6.43;100.00;99863.34;5073849;28;20078;-41
2024/02/12 02:22:01;;;;;;;21.67;16.67;;;;;;;6.42;100.00;99867.09;5073526;28;20024;-41
2024/02/12 02:24:26;;;;;;;23.13;16.55;;;;;;;6.38;100.00;99866.72;5073717;28;20024;-41
2024/02/12 02:26:52;;;;;;;18.27;14.00;;;;;;;6.40;100.00;99872.69;5073483;28;20353;-41
2024/02/12 02:29:18;;;;;;;22.90;15.25;;;;;;;6.32;100.00;99866.81;5073143;28;20078;-40
2024/02/12 02:31:43;;;;;;;20.83;15.50;;;;;;;6.21;100.00;99859.53;5073650;28;20029;-40
2024/02/12 02:34:09;;;;;;;24.27;16.45;;;;;;;6.21;100.00;99862.22;5074098;28;20027;-40
2024/02/12 02:36:35;;;;;;;21.67;15.57;;;;;;;6.26;100.00;99873.91;5073665;28;20110;-40
2024/02/12 02:39:03;;;;;;;25.08;16.77;;;;;;;6.22;100.00;99875.41;5073631;28;20032;-40
2024/02/12 02:41:28;;;;;;;20.98;15.40;;;;;;;6.23;100.00;99863.63;5073337;28;20029;-40
2024/02/12 02:43:54;;;;;;;24.77;17.42;;;;;;;6.18;100.00;99877.72;5073209;28;20029;-40
2024/02/12 02:46:28;;;;;;;22.63;16.25;;;;;;;6.16;100.00;99879.00;5073511;28;20062;-40
2024/02/12 02:48:55;;;;;;;23.33;17.55;;;;;;;6.12;100.00;99872.44;5073181;28;20070;-39
2024/02/12 02:51:27;;;;;;;23.75;16.70;;;;;;;6.06;100.00;99870.66;5073429;28;20024;-39
2024/02/12 02:53:52;;;;;;;20.77;15.80;;;;;;;6.09;100.00;99870.19;5073386;28;20024;-40
2024/02/12 02:56:18;;;;;;;22.92;16.02;;;;;;;6.03;100.00;99873.78;5073107;28;20055;-40
2024/02/12 02:58:43;;;;;;;24.80;16.37;;;;;;;5.99;100.00;99872.59;5073225;28;20039;-40
2024/02/12 03:01:10;;;;;;;26.67;17.10;;;;;;;5.95;100.00;99877.56;5073394;28;20119;-40
2024/02/12 03:03:35;;;;;;;24.60;17.50;;;;;;;5.94;100.00;99890.19;5073516;28;20025;-40
2024/02/12 03:06:03;;;;;;;23.83;17.40;;;;;;;5.94;100.00;99900.91;5073538;28;20027;-40
2024/02/12 03:08:31;;;;;;;25.10;16.65;;;;;;;5.97;100.00;99898.84;5073538;28;20099;-40
2024/02/12 03:10:56;;;;;;;27.63;19.00;;;;;;;5.85;100.00;99888.78;5072903;28;20021;-40
2024/02/12 03:13:22;;;;;;;23.90;18.37;;;;;;;5.92;100.00;99905.69;5073494;28;20103;-40
2024/02/12 03:15:48;;;;;;;29.70;18.13;;;;;;;5.94;100.00;99908.13;5073354;28;20020;-40
2024/02/12 03:18:13;;;;;;;25.15;18.17;;;;;;;5.89;100.00;99910.66;5073224;28;20126;-40
2024/02/12 03:20:39;;;;;;;22.40;17.60;;;;;;;5.90;100.00;99917.66;5073069;28;20024;-40
2024/02/12 03:23:04;;;;;;;26.70;18.53;;;;;;;5.86;100.00;99914.59;5072781;28;20103;-40
2024/02/12 03:25:29;;;;;;;28.87;19.17;;;;;;;5.85;100.00;99910.25;5073322;28;20107;-40
2024/02/12 03:27:55;;;;;;;30.03;19.20;;;;;;;5.85;100.00;99925.53;5073658;28;20029;-40
2024/02/12 03:30:22;;;;;;;26.73;18.50;;;;;;;5.80;100.00;99918.16;5072763;28;20020;-40
2024/02/12 03:32:47;;;;;;;29.55;19.13;;;;;;;5.80;100.00;99928.06;5073271;28;20020;-40
2024/02/12 03:35:13;;;;;;;28.00;19.10;;;;;;;5.81;100.00;99929.75;5073355;28;20028;-40
2024/02/12 03:37:40;;;;;;;27.13;19.80;;;;;;;5.80;100.00;99928.88;5072803;28;20063;-40
2024/02/12 03:40:10;;;;;;;26.33;18.77;;;;;;;5.79;100.00;99931.81;5072882;28;20028;-40
2024/02/12 03:42:36;;;;;;;29.52;19.48;;;;;;;5.80;100.00;99922.72;5076220;28;20025;-40
2024/02/12 03:45:05;;;;;;;30.70;20.15;;;;;;;5.81;100.00;99925.19;5076679;28;20103;-40
2024/02/12 03:47:38;;;;;;;27.15;19.77;;;;;;;5.86;100.00;99929.88;5076919;28;20034;-40
2024/02/12 04:01:20;;;;;;;27.15;19.10;;;;;;;5.99;100.00;99931.63;5076173;28;20070;-40
2024/02/12 04:03:49;;;;;;;29.83;20.00;;;;;;;5.98;100.00;99946.91;5076068;28;20111;-40
2024/02/12 04:06:15;;;;;;;28.50;20.50;;;;;;;5.98;100.00;99956.81;5076783;28;20029;-40
2024/02/12 04:08:43;;;;;;;;;;;;;;;6.05;100.00;99958.41;5077284;28;20039;-40
2024/02/12 04:11:09;;;;;;;27.67;19.83;;;;;;;6.00;100.00;99965.47;5076219;28;20006;-40
2024/02/12 04:13:35;;;;;;;29.83;19.75;;;;;;;5.99;100.00;99955.78;5076279;28;20024;-40
2024/02/12 04:16:02;;;;;;;30.50;20.92;;;;;;;6.00;100.00;99960.91;5075792;28;20025;-40
2024/02/12 04:18:30;;;;;;;34.03;21.70;;;;;;;6.00;100.00;99966.28;5076409;28;20024;-40
2024/02/12 04:20:57;;;;;;;28.40;20.27;;;;;;;5.99;100.00;99967.34;5076022;28;20077;-40
2024/02/12 04:23:23;;;;;;;27.77;19.35;;;;;;;6.00;100.00;99968.16;5076060;28;20056;-40
2024/02/12 04:25:50;;;;;;;31.60;20.88;;;;;;;5.99;100.00;99967.34;5075617;28;20055;-40
2024/02/12 04:28:20;;;;;;;27.85;20.30;;;;;;;5.84;100.00;99946.19;5076757;28;20100;-40
2024/02/12 04:30:47;;;;;;;29.02;21.02;;;;;;;5.87;100.00;99956.50;5076369;28;20025;-40
2024/02/12 04:33:12;;;;;;;26.50;20.63;;;;;;;5.96;100.00;99975.84;5076059;28;20063;-40
2024/02/12 04:35:38;;;;;;;28.05;20.48;;;;;;;5.98;100.00;99986.34;5075716;28;20017;-40
2024/02/12 04:38:03;;;;;;;30.30;19.93;;;;;;;5.98;100.00;99986.34;5076603;28;20032;-40
2024/02/12 04:40:29;;;;;;;32.67;20.45;;;;;;;5.93;100.00;99977.09;5075656;28;20028;-40
2024/02/12 04:42:57;;;;;;;30.10;20.13;;;;;;;5.99;100.00;99986.13;5075967;28;20342;-40
2024/02/12 04:45:23;;;;;;;26.40;19.80;;;;;;;5.92;100.00;99978.16;5075830;28;20025;-40
2024/02/12 04:47:49;;;;;;;27.90;20.08;;;;;;;5.92;100.00;99980.81;5075596;28;20024;-40
2024/02/12 04:50:15;;;;;;;;;;;;;;;6.07;100.00;99995.75;5075872;28;20032;-40
2024/02/12 04:52:40;;;;;;;23.67;18.93;;;;;;;6.01;100.00;99999.34;5075068;28;19911;-40
2024/02/12 04:55:06;;;;;;;28.30;20.50;;;;;;;5.99;100.00;100001.41;5075467;28;20295;-40
2024/02/12 04:57:32;;;;;;;25.45;18.58;;;;;;;5.97;100.00;99993.59;5075094;28;20744;-40
2024/02/12 04:59:57;;;;;;;26.45;20.15;;;;;;;6.00;100.00;100001.16;5075262;28;20020;-40
2024/02/12 05:02:22;;;;;;;32.30;22.13;;;;;;;5.92;100.00;99998.78;5075312;28;20031;-40
2024/02/12 05:04:50;;;;;;;25.57;20.83;;;;;;;6.01;100.00;100010.06;5074987;28;20082;-40
2024/02/12 05:07:16;;;;;;;30.50;20.95;;;;;;;6.02;100.00;100015.22;5075174;28;20070;-40
2024/02/12 05:09:42;;;;;;;28.67;20.77;;;;;;;6.02;100.00;100015.22;5075099;28;20483;-40
2024/02/12 05:12:08;;;;;;;26.88;22.05;;;;;;;6.05;100.00;100008.56;5075470;28;20025;-40
2024/02/12 05:14:33;;;;;;;28.90;20.70;;;;;;;6.01;100.00;100010.06;5075513;28;20025;-40
2024/02/12 05:17:03;;;;;;;34.10;23.27;;;;;;;6.04;100.00;100017.66;5074754;28;20044;-40
2024/02/12 05:24:56;;;;;;;27.35;21.63;;;;;;;6.08;100.00;100016.19;5074859;28;20070;-40
2024/02/12 05:27:22;;;;;;;29.45;22.50;;;;;;;5.92;100.00;99990.75;5074799;28;20052;-40
2024/02/12 05:29:48;;;;;;;29.05;21.38;;;;;;;6.04;100.00;100009.59;5074644;28;20025;-40
2024/02/12 05:32:13;;;;;;;30.40;21.80;;;;;;;6.13;100.00;100024.38;5074964;28;20038;-39
2024/02/12 05:34:41;;;;;;;28.13;20.83;;;;;;;6.14;100.00;100026.03;5074256;28;20456;-39
2024/02/12 05:37:06;;;;;;;28.00;21.30;;;;;;;6.13;100.00;100021.72;5075043;28;20017;-40
2024/02/12 05:39:33;;;;;;;30.23;22.17;;;;;;;6.07;100.00;100017.22;5074253;28;20027;-40
2024/02/12 05:41:59;;;;;;;31.10;22.02;;;;;;;6.05;100.00;100005.88;5075323;28;20039;-40
2024/02/12 05:44:25;;;;;;;25.70;20.33;;;;;;;6.13;100.00;100019.03;5074969;28;20445;-40
2024/02/12 05:46:50;;;;;;;25.05;20.23;;;;;;;6.16;100.00;100023.97;5075254;28;20020;-40
2024/02/12 05:49:22;;;;;;;26.60;21.20;;;;;;;6.18;100.00;100029.91;5074023;28;20066;-40
2024/02/12 05:51:48;;;;;;;29.05;21.77;;;;;;;6.15;100.00;100031.19;5074269;28;20020;-39
2024/02/12 05:54:14;;;;;;;26.75;20.45;;;;;;;6.18;100.00;100036.09;5073667;28;20067;-39
2024/02/12 05:56:39;;;;;;;33.75;21.60;;;;;;;6.17;100.00;100022.91;5073942;28;20060;-40
2024/02/12 05:59:05;;;;;;;29.17;20.85;;;;;;;6.21;100.00;100032.16;5074164;28;20028;-40
2024/02/12 06:01:31;;;;;;;27.52;20.67;;;;;;;6.18;100.00;100029.91;5074376;28;20028;-39
2024/02/12 06:03:57;;;;;;;25.70;19.98;;;;;;;6.21;100.00;100018.75;5073523;28;20076;-39
2024/02/12 06:06:22;;;;;;;31.50;20.95;;;;;;;6.18;100.00;100027.22;5074269;28;20028;-39
2024/02/12 06:08:49;;;;;;;29.37;22.43;;;;;;;6.19;100.00;100028.88;5074035;28;20020;-39
2024/02/12 06:11:14;;;;;;;26.65;22.35;;;;;;;6.18;100.00;100037.97;5073947;28;20242;-40
2024/02/12 06:13:40;;;;;;;31.70;22.67;;;;;;;6.15;100.00;100028.50;5074399;28;20210;-40
2024/02/12 06:16:05;;;;;;;29.25;21.45;;;;;;;6.08;100.00;100021.56;5074118;28;20047;-40
2024/02/12 06:18:31;;;;;;;28.13;22.35;;;;;;;6.13;100.00;100035.13;5074364;28;20012;-40
2024/02/12 06:20:56;;;;;;;31.13;22.43;;;;;;;6.15;100.00;100047.31;5073910;28;20025;-40
2024/02/12 06:23:21;;;;;;;29.50;22.50;;;;;;;6.13;100.00;100040.50;5073571;28;20016;-40
2024/02/12 06:25:47;;;;;;;32.87;22.90;;;;;;;6.04;100.00;100026.53;5074365;28;20035;-40
2024/02/12 06:28:12;;;;;;;29.10;23.17;;;;;;;6.13;100.00;100048.53;5073861;28;20020;-40
2024/02/12 06:30:37;;;;;;;28.87;22.30;;;;;;;6.08;100.00;100035.78;5073351;28;20029;-40
2024/02/12 06:33:03;;;;;;;29.63;22.97;;;;;;;6.10;100.00;100047.16;5074216;28;20247;-40
2024/02/12 06:35:32;;;;;;;29.52;23.42;;;;;;;6.16;100.00;100051.63;5073169;28;20051;-40
2024/02/12 06:38:02;;;;;;;30.85;22.15;;;;;;;6.17;100.00;100060.50;5073940;28;20483;-41
2024/02/12 06:40:27;;;;;;;31.90;22.60;;;;;;;6.19;100.00;100069.13;5074338;28;20078;-40
2024/02/12 06:42:52;;;;;;;30.47;23.13;;;;;;;6.17;100.00;100064.00;5073614;28;20408;-40
2024/02/12 06:45:18;;;;;;;29.27;22.50;;;;;;;6.20;100.00;100068.13;5073479;28;20349;-41
2024/02/12 06:47:44;;;;;;;27.53;22.30;;;;;;;6.14;100.00;100060.91;5073499;28;20056;-39
2024/02/12 06:50:10;;;;;;;30.05;22.50;;;;;;;6.22;100.00;100067.88;5074050;28;20305;-44
2024/02/12 06:52:35;;;;;;;;;;;;;;;6.30;100.00;100079.16;5074432;28;20393;-40
2024/02/12 06:55:00;;;;;;;29.97;22.17;;;;;;;6.23;100.00;100077.56;5073274;28;19955;-39
2024/02/12 06:57:26;;;;;;;28.08;22.02;;;;;;;6.24;100.00;100084.59;5073667;28;20048;-40
2024/02/12 06:59:51;;;;;;;29.13;22.87;;;;;;;6.22;100.00;100086.69;5073375;28;20047;-40
2024/02/12 07:02:19;;;;;;;28.87;21.87;;;;;;;6.19;100.00;100087.94;5073676;28;20367;-40
2024/02/12 07:04:44;;;;;;;26.67;20.40;;;;;;;6.21;100.00;100093.09;5074027;28;20028;-40
2024/02/12 07:07:10;;;;;;;28.55;22.52;;;;;;;6.18;100.00;100100.53;5074087;28;20437;-39
2024/02/12 07:09:35;;;;;;;29.47;22.53;;;;;;;6.15;100.00;100100.16;5073244;28;20078;-39
2024/02/12 07:12:01;;;;;;;27.73;20.97;;;;;;;6.17;100.00;100106.13;5073882;28;20047;-39
2024/02/12 07:14:27;;;;;;;27.25;21.00;;;;;;;6.18;100.00;100118.50;5073160;28;20024;-39
2024/02/12 07:16:52;;;;;;;25.80;20.08;;;;;;;6.16;100.00;100112.53;5075478;28;20117;-40
2024/02/12 07:19:18;;;;;;;24.20;20.13;;;;;;;6.19;100.00;100118.28;5077204;28;20146;-40
2024/02/12 07:21:43;;;;;;;25.67;18.47;;;;;;;6.19;100.00;100117.47;5076947;28;20277;-40
2024/02/12 07:24:09;;;;;;;25.15;19.13;;;;;;;6.18;100.00;100123.88;5077378;28;20027;-40
2024/02/12 07:26:35;;;;;;;25.27;19.17;;;;;;;6.12;100.00;100119.38;5077387;28;20025;-40
2024/02/12 07:29:00;;;;;;;21.52;18.00;;;;;;;6.17;100.00;100133.78;5077005;28;20031;-40
2024/02/12 07:31:26;;;;;;;24.83;17.47;;;;;;;6.06;100.00;100114.91;5076906;28;20033;-40
2024/02/12 07:33:52;;;;;;;22.85;18.70;;;;;;;6.20;100.00;100140.59;5076624;28;20266;-40
2024/02/12 07:36:18;;;;;;;25.52;18.17;;;;;;;6.24;100.00;100149.84;5076877;28;20024;-40
2024/02/12 07:38:43;;;;;;;21.40;17.02;;;;;;;6.24;100.00;100149.84;5077091;28;20020;-40
2024/02/12 07:41:09;;;;;;;22.30;17.60;;;;;;;6.26;100.00;100157.69;5076831;28;20024;-40
2024/02/12 07:43:35;;;;;;;26.87;19.27;;;;;;;6.28;100.00;100161.78;5077022;28;20078;-39
2024/02/12 07:46:01;;;;;;;24.60;18.15;;;;;;;6.21;100.00;100155.66;5076996;28;20028;-40
2024/02/12 07:48:28;;;;;;;22.95;17.52;;;;;;;6.29;100.00;100163.41;5076669;28;20439;-40
2024/02/12 07:50:54;;;;;;;25.63;18.13;;;;;;;6.31;100.00;100172.09;5077421;28;20030;-39
2024/02/12 07:53:24;;;;;;;23.40;17.90;;;;;;;6.26;100.00;100163.88;5076886;28;20029;-39
2024/02/12 07:55:51;;;;;;;23.65;18.42;;;;;;;6.30;100.00;100166.97;5076863;28;20048;-39
2024/02/12 07:58:17;;;;;;;22.65;17.45;;;;;;;6.30;100.00;100170.47;5077042;28;20060;-40
2024/02/12 08:00:42;;;;;;;25.42;17.55;;;;;;;6.29;100.00;100170.66;5076128;28;20097;-40
2024/02/12 08:03:08;;;;;;;30.67;18.97;;;;;;;6.38;100.00;100193.53;5076443;28;20035;-40
2024/02/12 08:05:36;;;;;;;24.93;18.13;;;;;;;6.34;100.00;100177.00;5076333;28;20052;-40
2024/02/12 08:08:06;;;;;;;27.55;19.20;;;;;;;6.40;100.00;100191.44;5076597;28;20024;-41
2024/02/12 08:10:31;;;;;;;24.92;19.13;;;;;;;6.41;100.00;100196.59;5076754;28;20020;-40
2024/02/12 08:12:57;;;;;;;25.13;18.88;;;;;;;6.42;100.00;100202.78;5076219;28;20139;-40
2024/02/12 08:15:22;;;;;;;26.27;18.92;;;;;;;6.37;100.00;100186.50;5074609;28;20085;-40
2024/02/12 08:17:47;;;;;;;24.90;18.13;;;;;;;6.47;100.00;100202.13;5076140;28;20021;-40
2024/02/12 08:20:16;;;;;;;24.77;19.30;;;;;;;6.51;100.00;100204.16;5076718;28;20056;-40
2024/02/12 08:22:42;;;;;;;27.25;19.65;;;;;;;6.50;100.00;100204.38;5075790;28;20020;-40
2024/02/12 08:25:10;;;;;;;29.17;20.60;;;;;;;6.49;100.00;100197.34;5075703;28;20400;-40
2024/02/12 08:27:35;;;;;;;27.42;21.10;;;;;;;6.55;100.00;100210.75;5075479;28;20104;-40
2024/02/12 08:30:01;;;;;;;26.90;19.63;;;;;;;6.61;100.00;100214.41;5076003;28;20103;-40
2024/02/12 08:32:28;;;;;;;24.95;19.35;;;;;;;6.61;100.00;100215.22;5075668;28;20480;-40
2024/02/12 08:34:53;;;;;;;27.08;18.73;;;;;;;6.68;100.00;100228.59;5075397;28;20037;-40
2024/02/12 08:37:19;;;;;;;26.17;19.27;;;;;;;6.65;100.00;100213.75;5075597;28;20101;-40
2024/02/12 08:39:44;;;;;;;24.48;19.30;;;;;;;6.75;100.00;100231.25;5075990;28;20062;-41
2024/02/12 08:42:10;;;;;;;24.57;18.63;;;;;;;6.69;100.00;100223.00;5076130;28;20025;-41
2024/02/12 08:44:35;;;;;;;28.47;19.83;;;;;;;6.75;100.00;100237.44;5075769;28;20031;-41
2024/02/12 08:47:00;;;;;;;29.40;19.63;;;;;;;6.76;100.00;100239.06;5076488;28;20270;-41
2024/02/12 08:49:28;;;;;;;23.77;19.47;;;;;;;6.76;100.00;100241.75;5076077;28;20025;-41
2024/02/12 08:51:56;;;;;;;27.83;19.38;;;;;;;6.76;100.00;100247.13;5075326;28;20372;-41
2024/02/12 08:54:22;;;;;;;23.70;19.83;;;;;;;6.78;100.00;100252.28;5075516;28;20112;-41
2024/02/12 08:56:51;;;;;;;;;;;;;;;6.87;100.00;100257.16;5076378;28;20024;-41
2024/02/12 08:59:19;;;;;;;26.73;19.38;;;;;;;6.84;100.00;100264.84;5075926;28;19995;-41
2024/02/12 09:01:44;;;;;;;21.90;18.38;;;;;;;6.82;100.00;100270.44;5075900;28;20024;-41
2024/02/12 09:04:10;;;;;;;25.42;20.13;;;;;;;6.72;100.00;100248.59;5075865;28;20111;-40
2024/02/12 09:06:35;;;;;;;21.92;17.83;;;;;;;6.87;100.00;100273.28;5075795;28;20032;-40
2024/02/12 09:09:00;;;;;;;22.90;18.47;;;;;;;6.86;100.00;100277.00;5075440;28;20028;-40
2024/02/12 09:11:26;;;;;;;20.73;17.17;;;;;;;6.83;100.00;100277.47;5075466;28;20445;-40
2024/02/12 09:13:52;;;;;;;21.15;17.48;;;;;;;6.82;100.00;100275.81;5075109;28;20025;-40
2024/02/12 09:16:19;;;;;;;19.90;16.25;;;;;;;6.90;100.00;100294.34;5076045;28;20020;-40
2024/02/12 09:18:46;;;;;;;18.50;15.38;;;;;;;6.90;100.00;100296.22;5074974;28;20368;-40
2024/02/12 09:21:12;;;;;;;20.20;15.40;;;;;;;6.96;100.00;100298.84;5074977;28;20028;-40
2024/02/12 09:23:37;;;;;;;21.65;15.23;;;;;;;6.93;100.00;100288.53;5074635;28;20024;-40
2024/02/12 09:26:05;;;;;;;19.38;15.88;;;;;;;7.04;100.00;100303.13;5075449;28;20475;-40
2024/02/12 09:28:32;;;;;;;20.40;15.23;;;;;;;7.01;100.00;100298.19;5075551;28;20020;-40
2024/02/12 09:30:59;;;;;;;21.10;15.70;;;;;;;7.12;100.00;100313.56;5074748;28;20111;-40
2024/02/12 09:33:25;;;;;;;22.45;15.15;;;;;;;7.17;100.00;100312.91;5074763;28;20036;-40
2024/02/12 09:35:51;;;;;;;17.88;14.60;;;;;;;7.14;100.00;100311.50;5075405;28;20085;-40
2024/02/12 09:38:16;;;;;;;18.65;13.82;;;;;;;7.28;100.00;100328.34;5074432;28;20094;-40
2024/02/12 09:40:42;;;;;;;20.37;14.10;;;;;;;7.19;100.00;100313.53;5074420;28;20025;-40
2024/02/12 09:43:11;;;;;;;16.98;13.43;;;;;;;7.29;100.00;100334.53;5074891;28;20262;-41
2024/02/12 09:45:43;;;;;;;17.10;13.02;;;;;;;7.21;100.00;100327.56;5074718;28;20103;-40
2024/02/12 09:48:10;;;;;;;14.73;12.25;;;;;;;7.31;100.00;100338.63;5074149;28;20021;-40
2024/02/12 09:50:37;;;;;;;14.10;12.18;;;;;;;7.33;100.00;100346.50;5074334;28;20027;-40
2024/02/12 09:53:03;;;;;;;15.73;12.75;;;;;;;7.37;100.00;100347.69;5074041;28;20032;-40
2024/02/12 09:55:31;;;;;;;17.73;13.00;;;;;;;7.41;100.00;100349.72;5074407;28;20047;-40
2024/02/12 09:57:58;;;;;;;16.80;12.75;;;;;;;7.55;100.00;100354.97;5074448;28;20051;-40
2024/02/12 10:00:24;;;;;;;16.88;12.82;;;;;;;7.62;100.00;100351.16;5074908;28;20352;-40
2024/02/12 10:02:53;;;;;;;18.38;13.32;;;;;;;7.71;100.00;100359.75;5074192;28;20028;-40
2024/02/12 10:05:23;;;;;;;18.50;13.68;;;;;;;7.72;100.00;100358.72;5074557;28;20031;-39
2024/02/12 10:07:50;;;;;;;14.18;12.32;;;;;;;7.60;100.00;100360.50;5074300;28;20402;-40
2024/02/12 10:10:17;;;;;;;15.32;11.70;;;;;;;7.65;100.00;100376.78;5074199;28;20453;-40
2024/02/12 10:12:43;;;;;;;14.45;12.93;;;;;;;7.65;100.00;100372.22;5074521;28;20028;-40
2024/02/12 10:15:13;;;;;;;;;;;;;;;7.76;100.00;100373.38;5074210;28;20107;-40
2024/02/12 10:17:39;;;;;;;13.82;11.27;;;;;;;7.59;100.00;100367.75;5074709;28;19908;-40
2024/02/12 10:20:09;;;;;;;;;;;;;;;7.74;100.00;100381.66;5074028;28;20453;-40
2024/02/12 10:22:36;;;;;;;13.63;11.20;;;;;;;7.64;100.00;100383.22;5074597;28;19914;-40
2024/02/12 10:25:01;;;;;;;16.00;11.65;;;;;;;7.65;100.00;100390.25;5074306;28;20033;-40
2024/02/12 10:27:28;;;;;;;15.53;11.43;;;;;;;7.76;100.00;100397.59;5073365;28;20036;-40
2024/02/12 10:29:58;;;;;;;18.52;12.98;;;;;;;7.89;100.00;100393.94;5073649;28;20078;-40
2024/02/12 10:32:24;;;;;;;15.05;12.52;;;;;;;8.05;100.00;100398.72;5073894;28;20526;-41
2024/02/12 10:34:53;;;;;;;15.10;12.85;;;;;;;8.06;100.00;100381.53;5073805;28;20028;-40
2024/02/12 10:37:24;;;;;;;12.93;11.30;;;;;;;8.20;100.00;100406.44;5073856;28;20031;-40
2024/02/12 10:39:51;;;;;;;14.00;11.10;;;;;;;8.16;100.00;100410.63;5073531;28;20020;-40
2024/02/12 10:42:24;;;;;;;13.35;10.77;;;;;;;8.16;100.00;100422.22;5073103;28;20476;-40
2024/02/12 10:44:50;;;;;;;13.90;11.35;;;;;;;8.14;100.00;100420.78;5073735;28;20050;-40
2024/02/12 10:47:16;;;;;;;14.30;11.65;;;;;;;8.08;100.00;100403.66;5074017;28;20440;-40
2024/02/12 10:49:42;;;;;;;;;;;;;;;8.33;100.00;100419.72;5073858;28;20119;-40
2024/02/12 10:52:09;;;;;;;14.68;11.75;;;;;;;8.32;100.00;100426.16;5074134;28;20337;-40
2024/02/12 10:54:35;;;;;;;13.48;11.55;;;;;;;8.30;100.00;100420.19;5073078;28;20131;-40
2024/02/12 10:57:02;;;;;;;13.63;11.00;;;;;;;8.18;100.00;100421.97;5073161;28;20031;-40
2024/02/12 10:59:29;;;;;;;15.90;11.38;;;;;;;8.09;100.00;100420.63;5073011;28;20052;-40
2024/02/12 11:01:54;;;;;;;;;;;;;;;8.17;100.00;100428.41;5074039;28;20027;-40
2024/02/12 11:04:25;;;;;;;13.98;10.77;;;;;;;8.13;100.00;100430.72;5072949;28;20408;-40
2024/02/12 11:06:51;;;;;;;11.73;8.95;;;;;;;8.15;100.00;100430.50;5073274;28;20020;-40
2024/02/12 11:09:19;;;;;;;12.63;10.27;;;;;;;8.37;100.00;100425.50;5073257;28;20437;-40
2024/02/12 11:11:46;;;;;;;15.48;11.18;;;;;;;8.37;100.00;100437.13;5072978;28;20024;-40
2024/02/12 11:14:14;;;;;;;13.20;11.80;;;;;;;8.26;100.00;100424.38;5073186;28;20017;-40
2024/02/12 11:16:40;;;;;;;13.93;12.52;;;;;;;8.32;100.00;100433.41;5073396;28;20056;-41
2024/02/12 11:19:16;;;;;;;14.73;11.82;;;;;;;8.44;100.00;100442.41;5073285;28;20025;-40
2024/02/12 11:21:41;;;;;;;12.30;11.10;;;;;;;8.59;100.00;100436.63;5073420;28;20317;-40
2024/02/12 11:24:11;;;;;;;13.93;11.75;;;;;;;8.62;100.00;100442.38;5073249;28;20020;-41
2024/02/12 11:26:43;;;;;;;15.18;12.00;;;;;;;8.65;100.00;100438.44;5073676;28;20494;-41
2024/02/12 11:29:09;;;;;;;13.32;11.10;;;;;;;8.81;100.00;100439.66;5073067;28;20358;-40
2024/02/12 11:31:37;;;;;;;11.73;10.50;;;;;;;8.80;100.00;100441.53;5073363;28;20021;-40